sensor_id;sensor_type;location;lat;lon;timestamp;temperature;humidity
40622;DHT22;26324;52.040;11.528;2023-05-10T00:01:52;12.10;62.20
40622;DHT22;26324;52.040;11.528;2023-05-10T00:04:20;12.10;62.20
40622;DHT22;26324;52.040;11.528;2023-05-10T00:06:47;12.00;62.20
40622;DHT22;26324;52.040;11.528;2023-05-10T00:09:15;12.00;62.60
40622;DHT22;26324;52.040;11.528;2023-05-10T00:11:42;12.00;62.60
40622;DHT22;26324;52.040;11.528;2023-05-10T00:14:09;12.10;62.40
40622;DHT22;26324;52.040;11.528;2023-05-10T00:16:37;12.10;62.50
40622;DHT22;26324;52.040;11.528;2023-05-10T00:19:04;12.00;62.60
40622;DHT22;26324;52.040;11.528;2023-05-10T00:21:32;11.90;62.30
40622;DHT22;26324;52.040;11.528;2023-05-10T00:24:00;11.70;62.90
40622;DHT22;26324;52.040;11.528;2023-05-10T00:26:28;11.60;64.00
40622;DHT22;26324;52.040;11.528;2023-05-10T00:28:56;11.40;64.50
40622;DHT22;26324;52.040;11.528;2023-05-10T00:31:24;11.40;64.90
40622;DHT22;26324;52.040;11.528;2023-05-10T00:33:51;11.30;65.20
40622;DHT22;26324;52.040;11.528;2023-05-10T00:36:19;11.30;65.00
40622;DHT22;26324;52.040;11.528;2023-05-10T00:38:46;11.40;65.10
40622;DHT22;26324;52.040;11.528;2023-05-10T00:41:13;11.50;64.80
40622;DHT22;26324;52.040;11.528;2023-05-10T00:43:41;11.50;65.00
40622;DHT22;26324;52.040;11.528;2023-05-10T00:46:08;11.50;64.60
40622;DHT22;26324;52.040;11.528;2023-05-10T00:48:36;11.50;65.00
40622;DHT22;26324;52.040;11.528;2023-05-10T00:51:03;11.50;64.70
40622;DHT22;26324;52.040;11.528;2023-05-10T00:53:31;11.50;65.10
40622;DHT22;26324;52.040;11.528;2023-05-10T00:55:59;11.50;64.90
40622;DHT22;26324;52.040;11.528;2023-05-10T00:58:28;11.50;65.10
40622;DHT22;26324;52.040;11.528;2023-05-10T01:00:55;11.40;65.30
40622;DHT22;26324;52.040;11.528;2023-05-10T01:03:25;11.30;65.50
40622;DHT22;26324;52.040;11.528;2023-05-10T01:05:53;11.40;65.50
40622;DHT22;26324;52.040;11.528;2023-05-10T01:08:20;11.40;65.10
40622;DHT22;26324;52.040;11.528;2023-05-10T01:10:49;11.30;65.60
40622;DHT22;26324;52.040;11.528;2023-05-10T01:13:37;11.30;65.80
40622;DHT22;26324;52.040;11.528;2023-05-10T01:16:05;11.30;65.70
40622;DHT22;26324;52.040;11.528;2023-05-10T01:18:41;11.30;66.00
40622;DHT22;26324;52.040;11.528;2023-05-10T01:22:05;11.20;66.10
40622;DHT22;26324;52.040;11.528;2023-05-10T01:35:45;10.90;67.50
40622;DHT22;26324;52.040;11.528;2023-05-10T01:38:20;10.80;67.40
40622;DHT22;26324;52.040;11.528;2023-05-10T01:41:14;10.80;67.90
40622;DHT22;26324;52.040;11.528;2023-05-10T01:43:53;10.70;68.10
40622;DHT22;26324;52.040;11.528;2023-05-10T01:46:28;10.80;68.00
40622;DHT22;26324;52.040;11.528;2023-05-10T01:48:59;10.70;68.10
40622;DHT22;26324;52.040;11.528;2023-05-10T01:51:34;10.70;68.30
40622;DHT22;26324;52.040;11.528;2023-05-10T01:54:05;10.60;68.60
40622;DHT22;26324;52.040;11.528;2023-05-10T01:56:35;10.60;68.80
40622;DHT22;26324;52.040;11.528;2023-05-10T01:59:06;10.50;69.10
40622;DHT22;26324;52.040;11.528;2023-05-10T02:01:36;10.60;68.90
40622;DHT22;26324;52.040;11.528;2023-05-10T02:04:08;10.50;68.90
40622;DHT22;26324;52.040;11.528;2023-05-10T02:06:38;10.50;69.30
40622;DHT22;26324;52.040;11.528;2023-05-10T02:09:07;10.30;69.70
40622;DHT22;26324;52.040;11.528;2023-05-10T02:11:35;10.30;69.80
40622;DHT22;26324;52.040;11.528;2023-05-10T02:14:08;10.30;70.20
40622;DHT22;26324;52.040;11.528;2023-05-10T02:16:37;10.30;70.10
40622;DHT22;26324;52.040;11.528;2023-05-10T02:19:07;10.20;70.50
40622;DHT22;26324;52.040;11.528;2023-05-10T02:21:36;10.20;70.60
40622;DHT22;26324;52.040;11.528;2023-05-10T02:24:06;10.30;70.50
40622;DHT22;26324;52.040;11.528;2023-05-10T02:26:35;10.20;70.50
40622;DHT22;26324;52.040;11.528;2023-05-10T02:29:03;10.10;71.00
40622;DHT22;26324;52.040;11.528;2023-05-10T02:31:32;10.10;70.80
40622;DHT22;26324;52.040;11.528;2023-05-10T02:34:01;10.10;70.90
40622;DHT22;26324;52.040;11.528;2023-05-10T02:36:29;10.10;70.80
40622;DHT22;26324;52.040;11.528;2023-05-10T02:38:57;10.20;70.80
40622;DHT22;26324;52.040;11.528;2023-05-10T02:41:27;10.20;70.70
40622;DHT22;26324;52.040;11.528;2023-05-10T02:43:57;10.20;70.70
40622;DHT22;26324;52.040;11.528;2023-05-10T02:46:26;10.20;70.70
40622;DHT22;26324;52.040;11.528;2023-05-10T02:48:55;10.20;70.80
40622;DHT22;26324;52.040;11.528;2023-05-10T02:51:25;10.30;70.80
40622;DHT22;26324;52.040;11.528;2023-05-10T02:53:55;10.10;70.90
40622;DHT22;26324;52.040;11.528;2023-05-10T02:56:31;10.20;71.00
40622;DHT22;26324;52.040;11.528;2023-05-10T02:59:00;10.20;70.90
40622;DHT22;26324;52.040;11.528;2023-05-10T03:01:27;10.20;70.60
40622;DHT22;26324;52.040;11.528;2023-05-10T03:03:55;10.20;70.70
40622;DHT22;26324;52.040;11.528;2023-05-10T03:06:22;10.30;70.30
40622;DHT22;26324;52.040;11.528;2023-05-10T03:08:49;10.30;69.90
40622;DHT22;26324;52.040;11.528;2023-05-10T03:11:39;10.30;70.30
40622;DHT22;26324;52.040;11.528;2023-05-10T03:14:21;10.20;70.40
40622;DHT22;26324;52.040;11.528;2023-05-10T03:16:57;10.20;70.20
40622;DHT22;26324;52.040;11.528;2023-05-10T03:19:32;10.20;70.30
40622;DHT22;26324;52.040;11.528;2023-05-10T03:22:04;10.20;70.60
40622;DHT22;26324;52.040;11.528;2023-05-10T03:24:36;10.20;70.50
40622;DHT22;26324;52.040;11.528;2023-05-10T03:27:04;10.20;70.60
40622;DHT22;26324;52.040;11.528;2023-05-10T03:29:32;10.20;70.70
40622;DHT22;26324;52.040;11.528;2023-05-10T03:32:00;10.20;70.80
40622;DHT22;26324;52.040;11.528;2023-05-10T03:34:30;10.30;70.70
40622;DHT22;26324;52.040;11.528;2023-05-10T03:36:58;10.30;70.70
40622;DHT22;26324;52.040;11.528;2023-05-10T03:39:30;10.30;70.80
40622;DHT22;26324;52.040;11.528;2023-05-10T03:41:59;10.30;70.90
40622;DHT22;26324;52.040;11.528;2023-05-10T03:44:26;10.30;71.10
40622;DHT22;26324;52.040;11.528;2023-05-10T03:46:54;10.30;70.80
40622;DHT22;26324;52.040;11.528;2023-05-10T03:49:22;10.30;70.70
40622;DHT22;26324;52.040;11.528;2023-05-10T03:51:50;10.30;70.90
40622;DHT22;26324;52.040;11.528;2023-05-10T03:54:17;10.30;70.90
40622;DHT22;26324;52.040;11.528;2023-05-10T03:56:44;10.40;70.70
40622;DHT22;26324;52.040;11.528;2023-05-10T03:59:12;10.50;70.50
40622;DHT22;26324;52.040;11.528;2023-05-10T04:01:39;10.50;70.60
40622;DHT22;26324;52.040;11.528;2023-05-10T04:04:08;10.60;70.30
40622;DHT22;26324;52.040;11.528;2023-05-10T04:06:37;10.60;70.10
40622;DHT22;26324;52.040;11.528;2023-05-10T04:09:04;10.60;70.10
40622;DHT22;26324;52.040;11.528;2023-05-10T04:11:32;10.60;70.10
40622;DHT22;26324;52.040;11.528;2023-05-10T04:14:07;10.60;70.10
40622;DHT22;26324;52.040;11.528;2023-05-10T04:16:34;10.60;70.10
40622;DHT22;26324;52.040;11.528;2023-05-10T04:19:02;10.70;69.60
40622;DHT22;26324;52.040;11.528;2023-05-10T04:21:29;10.60;70.20
40622;DHT22;26324;52.040;11.528;2023-05-10T04:23:57;10.70;70.40
40622;DHT22;26324;52.040;11.528;2023-05-10T04:26:25;10.80;70.30
40622;DHT22;26324;52.040;11.528;2023-05-10T04:28:52;10.90;70.00
40622;DHT22;26324;52.040;11.528;2023-05-10T04:31:20;10.90;70.10
40622;DHT22;26324;52.040;11.528;2023-05-10T04:33:47;11.00;69.90
40622;DHT22;26324;52.040;11.528;2023-05-10T04:36:14;11.10;69.80
40622;DHT22;26324;52.040;11.528;2023-05-10T04:38:42;11.10;69.60
40622;DHT22;26324;52.040;11.528;2023-05-10T04:41:10;11.20;69.60
40622;DHT22;26324;52.040;11.528;2023-05-10T04:43:38;11.10;69.10
40622;DHT22;26324;52.040;11.528;2023-05-10T04:46:05;11.10;69.30
40622;DHT22;26324;52.040;11.528;2023-05-10T04:48:34;11.10;69.20
40622;DHT22;26324;52.040;11.528;2023-05-10T04:51:02;11.20;69.80
40622;DHT22;26324;52.040;11.528;2023-05-10T04:53:30;11.20;69.40
40622;DHT22;26324;52.040;11.528;2023-05-10T04:55:58;11.40;69.50
40622;DHT22;26324;52.040;11.528;2023-05-10T04:58:25;11.50;69.20
40622;DHT22;26324;52.040;11.528;2023-05-10T05:00:53;11.60;68.80
40622;DHT22;26324;52.040;11.528;2023-05-10T05:03:20;11.70;68.80
40622;DHT22;26324;52.040;11.528;2023-05-10T05:05:48;11.90;68.30
40622;DHT22;26324;52.040;11.528;2023-05-10T05:08:15;12.00;67.90
40622;DHT22;26324;52.040;11.528;2023-05-10T05:10:42;12.10;68.00
40622;DHT22;26324;52.040;11.528;2023-05-10T05:13:12;12.20;68.10
40622;DHT22;26324;52.040;11.528;2023-05-10T05:15:39;12.30;67.60
40622;DHT22;26324;52.040;11.528;2023-05-10T05:18:06;12.40;67.40
40622;DHT22;26324;52.040;11.528;2023-05-10T05:20:34;12.50;67.20
40622;DHT22;26324;52.040;11.528;2023-05-10T05:23:02;12.70;66.70
40622;DHT22;26324;52.040;11.528;2023-05-10T05:25:30;12.80;66.70
40622;DHT22;26324;52.040;11.528;2023-05-10T05:27:57;12.80;66.50
40622;DHT22;26324;52.040;11.528;2023-05-10T05:30:25;13.00;66.10
40622;DHT22;26324;52.040;11.528;2023-05-10T05:32:52;13.10;66.70
40622;DHT22;26324;52.040;11.528;2023-05-10T05:35:19;13.30;66.50
40622;DHT22;26324;52.040;11.528;2023-05-10T05:37:47;13.20;65.70
40622;DHT22;26324;52.040;11.528;2023-05-10T05:40:14;13.40;64.90
40622;DHT22;26324;52.040;11.528;2023-05-10T05:42:41;13.40;63.90
40622;DHT22;26324;52.040;11.528;2023-05-10T05:45:09;13.40;64.00
40622;DHT22;26324;52.040;11.528;2023-05-10T05:47:58;13.20;63.80
40622;DHT22;26324;52.040;11.528;2023-05-10T05:50:26;13.10;64.50
40622;DHT22;26324;52.040;11.528;2023-05-10T05:52:54;13.10;64.70
40622;DHT22;26324;52.040;11.528;2023-05-10T05:55:22;13.10;64.90
40622;DHT22;26324;52.040;11.528;2023-05-10T05:57:51;13.00;65.10
40622;DHT22;26324;52.040;11.528;2023-05-10T06:00:19;13.10;65.60
40622;DHT22;26324;52.040;11.528;2023-05-10T06:02:51;13.30;65.40
40622;DHT22;26324;52.040;11.528;2023-05-10T06:05:20;13.30;65.40
40622;DHT22;26324;52.040;11.528;2023-05-10T06:07:51;13.30;65.60
40622;DHT22;26324;52.040;11.528;2023-05-10T06:10:21;13.30;66.00
40622;DHT22;26324;52.040;11.528;2023-05-10T06:12:50;13.50;65.80
40622;DHT22;26324;52.040;11.528;2023-05-10T06:15:20;13.50;65.90
40622;DHT22;26324;52.040;11.528;2023-05-10T06:17:48;13.60;65.80
40622;DHT22;26324;52.040;11.528;2023-05-10T06:20:20;13.70;66.30
40622;DHT22;26324;52.040;11.528;2023-05-10T06:22:48;13.80;65.70
40622;DHT22;26324;52.040;11.528;2023-05-10T06:25:16;13.90;65.20
40622;DHT22;26324;52.040;11.528;2023-05-10T06:27:45;14.10;65.50
40622;DHT22;26324;52.040;11.528;2023-05-10T06:30:22;14.20;65.00
40622;DHT22;26324;52.040;11.528;2023-05-10T06:32:54;14.50;65.10
40622;DHT22;26324;52.040;11.528;2023-05-10T06:35:22;14.50;64.80
40622;DHT22;26324;52.040;11.528;2023-05-10T06:37:49;14.70;64.10
40622;DHT22;26324;52.040;11.528;2023-05-10T06:40:17;14.70;63.80
40622;DHT22;26324;52.040;11.528;2023-05-10T06:42:45;14.90;64.10
40622;DHT22;26324;52.040;11.528;2023-05-10T06:45:14;15.10;64.00
40622;DHT22;26324;52.040;11.528;2023-05-10T06:47:42;15.20;63.30
40622;DHT22;26324;52.040;11.528;2023-05-10T06:50:10;15.10;62.40
40622;DHT22;26324;52.040;11.528;2023-05-10T06:52:39;14.80;62.80
40622;DHT22;26324;52.040;11.528;2023-05-10T06:55:06;14.60;63.40
40622;DHT22;26324;52.040;11.528;2023-05-10T06:57:34;14.80;63.50
40622;DHT22;26324;52.040;11.528;2023-05-10T07:00:03;14.90;63.50
40622;DHT22;26324;52.040;11.528;2023-05-10T07:02:31;15.10;62.80
40622;DHT22;26324;52.040;11.528;2023-05-10T07:04:59;15.10;62.20
40622;DHT22;26324;52.040;11.528;2023-05-10T07:07:29;15.20;62.30
40622;DHT22;26324;52.040;11.528;2023-05-10T07:09:56;15.10;61.00
40622;DHT22;26324;52.040;11.528;2023-05-10T07:12:24;15.00;63.00
40622;DHT22;26324;52.040;11.528;2023-05-10T07:14:52;14.80;63.40
40622;DHT22;26324;52.040;11.528;2023-05-10T07:17:19;14.80;64.10
40622;DHT22;26324;52.040;11.528;2023-05-10T07:19:47;15.10;64.60
40622;DHT22;26324;52.040;11.528;2023-05-10T07:22:15;15.10;63.10
40622;DHT22;26324;52.040;11.528;2023-05-10T07:24:43;15.00;63.60
40622;DHT22;26324;52.040;11.528;2023-05-10T07:27:11;15.10;64.10
40622;DHT22;26324;52.040;11.528;2023-05-10T07:29:38;15.10;63.50
40622;DHT22;26324;52.040;11.528;2023-05-10T07:32:05;15.20;63.20
40622;DHT22;26324;52.040;11.528;2023-05-10T07:34:33;15.30;63.00
40622;DHT22;26324;52.040;11.528;2023-05-10T07:37:00;15.30;62.60
40622;DHT22;26324;52.040;11.528;2023-05-10T07:39:28;15.30;62.50
40622;DHT22;26324;52.040;11.528;2023-05-10T07:41:55;15.20;63.70
40622;DHT22;26324;52.040;11.528;2023-05-10T07:44:23;15.30;62.90
40622;DHT22;26324;52.040;11.528;2023-05-10T07:46:50;15.50;63.30
40622;DHT22;26324;52.040;11.528;2023-05-10T07:49:17;15.80;63.30
40622;DHT22;26324;52.040;11.528;2023-05-10T07:51:45;15.90;62.80
40622;DHT22;26324;52.040;11.528;2023-05-10T07:54:12;16.10;61.10
40622;DHT22;26324;52.040;11.528;2023-05-10T07:56:40;16.20;60.90
40622;DHT22;26324;52.040;11.528;2023-05-10T07:59:15;16.10;60.40
40622;DHT22;26324;52.040;11.528;2023-05-10T08:01:43;15.80;61.60
40622;DHT22;26324;52.040;11.528;2023-05-10T08:04:10;15.80;62.00
40622;DHT22;26324;52.040;11.528;2023-05-10T08:06:39;15.80;62.30
40622;DHT22;26324;52.040;11.528;2023-05-10T08:09:06;15.60;63.60
40622;DHT22;26324;52.040;11.528;2023-05-10T08:11:34;15.60;63.60
40622;DHT22;26324;52.040;11.528;2023-05-10T08:14:02;15.50;63.20
40622;DHT22;26324;52.040;11.528;2023-05-10T08:16:29;15.50;62.90
40622;DHT22;26324;52.040;11.528;2023-05-10T08:18:57;15.50;63.60
40622;DHT22;26324;52.040;11.528;2023-05-10T08:21:24;15.50;63.50
40622;DHT22;26324;52.040;11.528;2023-05-10T08:23:51;15.60;64.60
40622;DHT22;26324;52.040;11.528;2023-05-10T08:26:18;15.60;64.60
40622;DHT22;26324;52.040;11.528;2023-05-10T08:28:46;15.50;64.30
40622;DHT22;26324;52.040;11.528;2023-05-10T08:31:13;15.50;64.90
40622;DHT22;26324;52.040;11.528;2023-05-10T08:33:40;15.50;65.10
40622;DHT22;26324;52.040;11.528;2023-05-10T08:36:10;15.50;66.10
40622;DHT22;26324;52.040;11.528;2023-05-10T08:38:38;15.50;66.20
40622;DHT22;26324;52.040;11.528;2023-05-10T08:41:05;15.60;65.90
40622;DHT22;26324;52.040;11.528;2023-05-10T08:43:35;15.60;66.10
40622;DHT22;26324;52.040;11.528;2023-05-10T08:46:05;15.60;65.00
40622;DHT22;26324;52.040;11.528;2023-05-10T08:48:34;15.60;65.70
40622;DHT22;26324;52.040;11.528;2023-05-10T08:51:02;15.90;66.40
40622;DHT22;26324;52.040;11.528;2023-05-10T08:53:31;16.00;65.00
40622;DHT22;26324;52.040;11.528;2023-05-10T08:56:01;16.10;65.20
40622;DHT22;26324;52.040;11.528;2023-05-10T08:58:28;16.10;65.10
40622;DHT22;26324;52.040;11.528;2023-05-10T09:00:56;16.10;64.70
40622;DHT22;26324;52.040;11.528;2023-05-10T09:03:23;16.20;64.80
40622;DHT22;26324;52.040;11.528;2023-05-10T09:05:51;16.40;65.20
40622;DHT22;26324;52.040;11.528;2023-05-10T09:08:18;16.40;64.60
40622;DHT22;26324;52.040;11.528;2023-05-10T09:10:48;16.50;65.10
40622;DHT22;26324;52.040;11.528;2023-05-10T09:13:15;16.50;64.20
40622;DHT22;26324;52.040;11.528;2023-05-10T09:15:44;16.60;64.20
40622;DHT22;26324;52.040;11.528;2023-05-10T09:18:12;16.60;63.80
40622;DHT22;26324;52.040;11.528;2023-05-10T09:20:40;16.80;64.80
40622;DHT22;26324;52.040;11.528;2023-05-10T09:23:08;17.10;63.30
40622;DHT22;26324;52.040;11.528;2023-05-10T09:25:35;17.40;63.60
40622;DHT22;26324;52.040;11.528;2023-05-10T09:28:08;17.80;63.10
40622;DHT22;26324;52.040;11.528;2023-05-10T09:30:36;18.10;62.00
40622;DHT22;26324;52.040;11.528;2023-05-10T09:33:03;18.00;62.20
40622;DHT22;26324;52.040;11.528;2023-05-10T09:35:32;18.10;62.40
40622;DHT22;26324;52.040;11.528;2023-05-10T09:38:03;18.30;61.40
40622;DHT22;26324;52.040;11.528;2023-05-10T09:40:31;18.40;60.90
40622;DHT22;26324;52.040;11.528;2023-05-10T09:43:01;18.70;61.60
40622;DHT22;26324;52.040;11.528;2023-05-10T09:45:30;18.70;61.20
40622;DHT22;26324;52.040;11.528;2023-05-10T09:47:58;18.90;61.00
40622;DHT22;26324;52.040;11.528;2023-05-10T09:50:26;18.80;60.60
40622;DHT22;26324;52.040;11.528;2023-05-10T09:52:59;18.60;61.30
40622;DHT22;26324;52.040;11.528;2023-05-10T09:55:40;18.60;61.80
40622;DHT22;26324;52.040;11.528;2023-05-10T09:58:08;18.50;62.60
40622;DHT22;26324;52.040;11.528;2023-05-10T10:00:43;18.50;62.00
40622;DHT22;26324;52.040;11.528;2023-05-10T10:03:18;18.50;62.30
40622;DHT22;26324;52.040;11.528;2023-05-10T10:05:47;18.30;61.20
40622;DHT22;26324;52.040;11.528;2023-05-10T10:08:14;18.00;62.50
40622;DHT22;26324;52.040;11.528;2023-05-10T10:10:42;18.20;63.00
40622;DHT22;26324;52.040;11.528;2023-05-10T10:13:13;17.90;63.60
40622;DHT22;26324;52.040;11.528;2023-05-10T10:15:42;18.00;64.20
40622;DHT22;26324;52.040;11.528;2023-05-10T10:18:14;18.20;63.20
40622;DHT22;26324;52.040;11.528;2023-05-10T10:20:42;18.30;64.00
40622;DHT22;26324;52.040;11.528;2023-05-10T10:23:10;18.40;64.50
40622;DHT22;26324;52.040;11.528;2023-05-10T10:25:37;18.50;64.50
40622;DHT22;26324;52.040;11.528;2023-05-10T10:28:22;18.70;63.80
40622;DHT22;26324;52.040;11.528;2023-05-10T10:30:55;18.90;63.90
40622;DHT22;26324;52.040;11.528;2023-05-10T10:33:55;18.90;63.90
40622;DHT22;26324;52.040;11.528;2023-05-10T10:36:24;19.00;63.70
40622;DHT22;26324;52.040;11.528;2023-05-10T10:38:54;19.10;64.80
40622;DHT22;26324;52.040;11.528;2023-05-10T10:41:40;18.80;65.70
40622;DHT22;26324;52.040;11.528;2023-05-10T10:44:37;18.50;66.50
40622;DHT22;26324;52.040;11.528;2023-05-10T10:49:48;18.50;68.40
40622;DHT22;26324;52.040;11.528;2023-05-10T10:52:39;18.50;68.60
40622;DHT22;26324;52.040;11.528;2023-05-10T10:55:17;18.40;69.70
40622;DHT22;26324;52.040;11.528;2023-05-10T10:57:51;18.50;70.10
40622;DHT22;26324;52.040;11.528;2023-05-10T11:00:32;18.60;69.60
40622;DHT22;26324;52.040;11.528;2023-05-10T11:03:09;18.50;68.60
40622;DHT22;26324;52.040;11.528;2023-05-10T11:05:42;18.50;68.70
40622;DHT22;26324;52.040;11.528;2023-05-10T11:16:21;18.50;70.40
40622;DHT22;26324;52.040;11.528;2023-05-10T11:19:03;18.10;70.50
40622;DHT22;26324;52.040;11.528;2023-05-10T11:21:32;17.90;71.40
40622;DHT22;26324;52.040;11.528;2023-05-10T11:24:00;17.70;71.70
40622;DHT22;26324;52.040;11.528;2023-05-10T11:26:34;17.60;72.80
40622;DHT22;26324;52.040;11.528;2023-05-10T11:29:02;17.50;73.30
40622;DHT22;26324;52.040;11.528;2023-05-10T11:31:31;17.60;73.50
40622;DHT22;26324;52.040;11.528;2023-05-10T11:34:00;17.70;73.90
40622;DHT22;26324;52.040;11.528;2023-05-10T11:36:34;17.80;74.00
40622;DHT22;26324;52.040;11.528;2023-05-10T11:39:03;18.00;73.90
40622;DHT22;26324;52.040;11.528;2023-05-10T11:41:31;18.20;73.90
40622;DHT22;26324;52.040;11.528;2023-05-10T11:43:58;18.40;73.70
40622;DHT22;26324;52.040;11.528;2023-05-10T11:46:27;18.60;72.20
40622;DHT22;26324;52.040;11.528;2023-05-10T11:49:00;18.60;70.90
40622;DHT22;26324;52.040;11.528;2023-05-10T11:51:28;18.70;70.30
40622;DHT22;26324;52.040;11.528;2023-05-10T11:53:56;18.70;70.60
40622;DHT22;26324;52.040;11.528;2023-05-10T11:56:24;18.90;70.10
40622;DHT22;26324;52.040;11.528;2023-05-10T11:58:57;19.10;69.70
40622;DHT22;26324;52.040;11.528;2023-05-10T12:01:26;19.30;69.70
40622;DHT22;26324;52.040;11.528;2023-05-10T12:03:55;19.50;68.50
40622;DHT22;26324;52.040;11.528;2023-05-10T12:06:28;19.60;67.50
40622;DHT22;26324;52.040;11.528;2023-05-10T12:08:56;19.40;66.50
40622;DHT22;26324;52.040;11.528;2023-05-10T12:11:28;19.10;67.60
40622;DHT22;26324;52.040;11.528;2023-05-10T12:13:55;18.90;68.50
40622;DHT22;26324;52.040;11.528;2023-05-10T12:16:29;18.80;68.60
40622;DHT22;26324;52.040;11.528;2023-05-10T12:18:58;18.70;69.00
40622;DHT22;26324;52.040;11.528;2023-05-10T12:21:28;18.60;68.90
40622;DHT22;26324;52.040;11.528;2023-05-10T12:24:04;18.40;69.90
40622;DHT22;26324;52.040;11.528;2023-05-10T12:26:32;18.00;72.30
40622;DHT22;26324;52.040;11.528;2023-05-10T12:29:16;17.80;73.30
40622;DHT22;26324;52.040;11.528;2023-05-10T12:31:54;17.30;74.90
40622;DHT22;26324;52.040;11.528;2023-05-10T12:34:32;17.10;77.30
40622;DHT22;26324;52.040;11.528;2023-05-10T12:37:00;16.90;78.00
40622;DHT22;26324;52.040;11.528;2023-05-10T12:39:44;16.70;78.90
40622;DHT22;26324;52.040;11.528;2023-05-10T12:42:13;16.90;79.00
40622;DHT22;26324;52.040;11.528;2023-05-10T12:44:40;16.90;77.70
40622;DHT22;26324;52.040;11.528;2023-05-10T12:47:07;16.80;79.10
40622;DHT22;26324;52.040;11.528;2023-05-10T12:49:34;17.10;79.30
40622;DHT22;26324;52.040;11.528;2023-05-10T12:52:02;17.30;78.30
40622;DHT22;26324;52.040;11.528;2023-05-10T12:54:29;17.40;77.00
40622;DHT22;26324;52.040;11.528;2023-05-10T12:56:57;17.60;75.90
40622;DHT22;26324;52.040;11.528;2023-05-10T12:59:24;17.60;75.50
40622;DHT22;26324;52.040;11.528;2023-05-10T13:01:51;17.70;74.40
40622;DHT22;26324;52.040;11.528;2023-05-10T13:04:19;17.80;75.10
40622;DHT22;26324;52.040;11.528;2023-05-10T13:06:46;18.10;74.30
40622;DHT22;26324;52.040;11.528;2023-05-10T13:09:14;18.30;73.70
40622;DHT22;26324;52.040;11.528;2023-05-10T13:11:42;18.50;72.90
40622;DHT22;26324;52.040;11.528;2023-05-10T13:14:09;18.80;73.70
40622;DHT22;26324;52.040;11.528;2023-05-10T13:16:36;19.00;70.60
40622;DHT22;26324;52.040;11.528;2023-05-10T13:19:04;19.10;70.80
40622;DHT22;26324;52.040;11.528;2023-05-10T13:21:31;19.00;70.10
40622;DHT22;26324;52.040;11.528;2023-05-10T13:23:58;19.00;70.80
40622;DHT22;26324;52.040;11.528;2023-05-10T13:26:27;19.10;70.90
40622;DHT22;26324;52.040;11.528;2023-05-10T13:28:55;19.00;69.60
40622;DHT22;26324;52.040;11.528;2023-05-10T13:31:22;19.00;70.00
40622;DHT22;26324;52.040;11.528;2023-05-10T13:33:50;19.00;70.80
40622;DHT22;26324;52.040;11.528;2023-05-10T13:36:17;18.90;69.80
40622;DHT22;26324;52.040;11.528;2023-05-10T13:38:44;19.00;70.60
40622;DHT22;26324;52.040;11.528;2023-05-10T13:41:12;18.90;70.00
40622;DHT22;26324;52.040;11.528;2023-05-10T13:43:39;18.80;69.90
40622;DHT22;26324;52.040;11.528;2023-05-10T13:46:07;18.50;70.70
40622;DHT22;26324;52.040;11.528;2023-05-10T13:48:34;18.30;70.50
40622;DHT22;26324;52.040;11.528;2023-05-10T13:51:05;18.50;71.50
40622;DHT22;26324;52.040;11.528;2023-05-10T13:53:32;18.60;70.90
40622;DHT22;26324;52.040;11.528;2023-05-10T13:56:00;18.80;70.30
40622;DHT22;26324;52.040;11.528;2023-05-10T13:58:27;18.70;68.70
40622;DHT22;26324;52.040;11.528;2023-05-10T14:00:55;18.70;69.40
40622;DHT22;26324;52.040;11.528;2023-05-10T14:03:22;18.80;70.60
40622;DHT22;26324;52.040;11.528;2023-05-10T14:05:50;18.80;69.50
40622;DHT22;26324;52.040;11.528;2023-05-10T14:08:17;19.00;70.80
40622;DHT22;26324;52.040;11.528;2023-05-10T14:10:44;19.10;69.90
40622;DHT22;26324;52.040;11.528;2023-05-10T14:13:12;19.10;69.60
40622;DHT22;26324;52.040;11.528;2023-05-10T14:15:39;18.90;69.30
40622;DHT22;26324;52.040;11.528;2023-05-10T14:18:06;18.80;70.30
40622;DHT22;26324;52.040;11.528;2023-05-10T14:20:34;18.70;70.40
40622;DHT22;26324;52.040;11.528;2023-05-10T14:23:01;18.60;70.40
40622;DHT22;26324;52.040;11.528;2023-05-10T14:25:28;18.70;71.20
40622;DHT22;26324;52.040;11.528;2023-05-10T14:27:55;18.80;70.50
40622;DHT22;26324;52.040;11.528;2023-05-10T14:30:23;18.90;70.30
40622;DHT22;26324;52.040;11.528;2023-05-10T14:32:50;19.00;70.80
40622;DHT22;26324;52.040;11.528;2023-05-10T14:35:17;19.00;69.90
40622;DHT22;26324;52.040;11.528;2023-05-10T14:37:46;19.00;71.20
40622;DHT22;26324;52.040;11.528;2023-05-10T14:40:13;19.00;71.10
40622;DHT22;26324;52.040;11.528;2023-05-10T14:42:42;19.10;70.60
40622;DHT22;26324;52.040;11.528;2023-05-10T14:45:10;19.10;69.70
40622;DHT22;26324;52.040;11.528;2023-05-10T14:47:38;19.10;70.00
40622;DHT22;26324;52.040;11.528;2023-05-10T14:50:06;19.10;70.80
40622;DHT22;26324;52.040;11.528;2023-05-10T14:52:34;19.10;69.70
40622;DHT22;26324;52.040;11.528;2023-05-10T14:55:02;19.30;70.10
40622;DHT22;26324;52.040;11.528;2023-05-10T14:57:29;19.20;69.00
40622;DHT22;26324;52.040;11.528;2023-05-10T14:59:57;19.10;69.00
40622;DHT22;26324;52.040;11.528;2023-05-10T15:02:24;19.10;69.20
40622;DHT22;26324;52.040;11.528;2023-05-10T15:04:52;19.40;68.90
40622;DHT22;26324;52.040;11.528;2023-05-10T15:07:20;19.70;67.50
40622;DHT22;26324;52.040;11.528;2023-05-10T15:09:47;19.90;66.70
40622;DHT22;26324;52.040;11.528;2023-05-10T15:12:14;20.10;65.50
40622;DHT22;26324;52.040;11.528;2023-05-10T15:14:42;20.30;65.60
40622;DHT22;26324;52.040;11.528;2023-05-10T15:17:09;20.50;63.60
40622;DHT22;26324;52.040;11.528;2023-05-10T15:19:37;20.80;64.20
40622;DHT22;26324;52.040;11.528;2023-05-10T15:22:04;21.50;62.00
40622;DHT22;26324;52.040;11.528;2023-05-10T15:24:32;22.30;61.30
40622;DHT22;26324;52.040;11.528;2023-05-10T15:26:59;22.70;58.60
40622;DHT22;26324;52.040;11.528;2023-05-10T15:29:27;23.10;59.30
40622;DHT22;26324;52.040;11.528;2023-05-10T15:31:54;23.20;55.90
40622;DHT22;26324;52.040;11.528;2023-05-10T15:34:21;23.50;55.20
40622;DHT22;26324;52.040;11.528;2023-05-10T15:36:49;23.60;54.60
40622;DHT22;26324;52.040;11.528;2023-05-10T15:39:16;23.70;53.70
40622;DHT22;26324;52.040;11.528;2023-05-10T15:41:43;23.70;53.70
40622;DHT22;26324;52.040;11.528;2023-05-10T15:44:10;23.80;52.90
40622;DHT22;26324;52.040;11.528;2023-05-10T15:46:38;23.70;52.30
40622;DHT22;26324;52.040;11.528;2023-05-10T15:49:05;23.80;51.90
40622;DHT22;26324;52.040;11.528;2023-05-10T15:51:33;23.70;53.00